Tabatinga, Brazil
Current Conditions -  °F | °C
As of 6:00 PM on Friday 24 Oct 2014 (Local Time) from SBTT Reporting Station
Scattered Clouds Scattered Clouds  
Wind Chill: 77°   Ceiling: Unl
Heat Index: 78°   Visibility: 6mi
Dew Point: 75°   Wind: 1mph
Humidity: 94%   Direction: 90°E
Pressure: 29.74"   Gusts: NA
Location:  4.25°S, 69.93°W
Report Text: SBTT 242300Z 09001KT 9999 FEW010 SCT100 25/24 Q1007
Loading
Personal Weather Stations






























Interactive Weather Map
Tropical Storm Tracking
New forecast layout! Learn more

10-Day Weather Forecast

Advertisements
Track Severe Weather on mobile